sensor_id;sensor_type;location;lat;lon;timestamp;P1;durP1;ratioP1;P2;durP2;ratioP2
9541;SDS011;4809;48.224;8.572;2023-11-21T00:00:12;1.92;;;0.95;;
9541;SDS011;4809;48.224;8.572;2023-11-21T00:02:40;1.52;;;0.98;;
9541;SDS011;4809;48.224;8.572;2023-11-21T00:05:09;0.88;;;0.80;;
9541;SDS011;4809;48.224;8.572;2023-11-21T00:07:36;1.35;;;0.82;;
9541;SDS011;4809;48.224;8.572;2023-11-21T00:10:03;1.77;;;0.93;;
9541;SDS011;4809;48.224;8.572;2023-11-21T00:12:30;1.13;;;0.88;;
9541;SDS011;4809;48.224;8.572;2023-11-21T00:14:56;1.95;;;1.00;;
9541;SDS011;4809;48.224;8.572;2023-11-21T00:17:22;0.80;;;0.73;;
9541;SDS011;4809;48.224;8.572;2023-11-21T00:19:48;1.35;;;0.90;;
9541;SDS011;4809;48.224;8.572;2023-11-21T00:22:14;2.25;;;0.70;;
9541;SDS011;4809;48.224;8.572;2023-11-21T00:24:41;1.13;;;0.80;;
9541;SDS011;4809;48.224;8.572;2023-11-21T00:27:07;2.70;;;0.82;;
9541;SDS011;4809;48.224;8.572;2023-11-21T00:29:33;0.88;;;0.77;;
9541;SDS011;4809;48.224;8.572;2023-11-21T00:31:58;1.02;;;0.80;;
9541;SDS011;4809;48.224;8.572;2023-11-21T00:34:24;0.93;;;0.70;;
9541;SDS011;4809;48.224;8.572;2023-11-21T00:36:49;1.08;;;0.85;;
9541;SDS011;4809;48.224;8.572;2023-11-21T00:39:15;0.80;;;0.77;;
9541;SDS011;4809;48.224;8.572;2023-11-21T00:41:44;0.68;;;0.68;;
9541;SDS011;4809;48.224;8.572;2023-11-21T00:44:13;0.80;;;0.80;;
9541;SDS011;4809;48.224;8.572;2023-11-21T00:46:40;1.55;;;1.00;;
9541;SDS011;4809;48.224;8.572;2023-11-21T00:49:05;0.98;;;0.75;;
9541;SDS011;4809;48.224;8.572;2023-11-21T00:51:31;2.15;;;0.85;;
9541;SDS011;4809;48.224;8.572;2023-11-21T00:53:57;2.40;;;0.77;;
9541;SDS011;4809;48.224;8.572;2023-11-21T00:56:23;1.13;;;0.70;;
9541;SDS011;4809;48.224;8.572;2023-11-21T00:58:49;0.57;;;0.50;;
9541;SDS011;4809;48.224;8.572;2023-11-21T01:01:17;1.10;;;0.40;;
9541;SDS011;4809;48.224;8.572;2023-11-21T01:03:45;0.65;;;0.43;;
9541;SDS011;4809;48.224;8.572;2023-11-21T01:06:17;0.68;;;0.52;;
9541;SDS011;4809;48.224;8.572;2023-11-21T01:08:43;0.50;;;0.47;;
9541;SDS011;4809;48.224;8.572;2023-11-21T01:11:09;1.15;;;0.43;;
9541;SDS011;4809;48.224;8.572;2023-11-21T01:13:37;1.52;;;0.77;;
9541;SDS011;4809;48.224;8.572;2023-11-21T01:16:04;0.77;;;0.50;;
9541;SDS011;4809;48.224;8.572;2023-11-21T01:18:31;0.65;;;0.40;;
9541;SDS011;4809;48.224;8.572;2023-11-21T01:20:57;0.45;;;0.40;;
9541;SDS011;4809;48.224;8.572;2023-11-21T01:23:22;0.55;;;0.50;;
9541;SDS011;4809;48.224;8.572;2023-11-21T01:25:49;0.52;;;0.30;;
9541;SDS011;4809;48.224;8.572;2023-11-21T01:28:16;0.93;;;0.40;;
9541;SDS011;4809;48.224;8.572;2023-11-21T01:30:42;0.35;;;0.32;;
9541;SDS011;4809;48.224;8.572;2023-11-21T01:33:07;1.15;;;0.45;;
9541;SDS011;4809;48.224;8.572;2023-11-21T01:35:33;1.58;;;0.50;;
9541;SDS011;4809;48.224;8.572;2023-11-21T01:38:00;0.80;;;0.35;;
9541;SDS011;4809;48.224;8.572;2023-11-21T01:40:25;0.85;;;0.30;;
9541;SDS011;4809;48.224;8.572;2023-11-21T01:42:52;0.40;;;0.40;;
9541;SDS011;4809;48.224;8.572;2023-11-21T01:45:18;0.40;;;0.40;;
9541;SDS011;4809;48.224;8.572;2023-11-21T01:47:45;0.65;;;0.40;;
9541;SDS011;4809;48.224;8.572;2023-11-21T01:50:13;0.45;;;0.45;;
9541;SDS011;4809;48.224;8.572;2023-11-21T01:52:41;1.67;;;0.50;;
9541;SDS011;4809;48.224;8.572;2023-11-21T01:55:11;0.38;;;0.32;;
9541;SDS011;4809;48.224;8.572;2023-11-21T01:57:39;0.85;;;0.40;;
9541;SDS011;4809;48.224;8.572;2023-11-21T02:00:05;0.40;;;0.40;;
9541;SDS011;4809;48.224;8.572;2023-11-21T02:02:50;1.27;;;0.60;;
9541;SDS011;4809;48.224;8.572;2023-11-21T02:05:16;0.38;;;0.38;;
9541;SDS011;4809;48.224;8.572;2023-11-21T02:07:50;0.50;;;0.50;;
9541;SDS011;4809;48.224;8.572;2023-11-21T02:10:17;0.68;;;0.45;;
9541;SDS011;4809;48.224;8.572;2023-11-21T02:12:49;2.30;;;0.75;;
9541;SDS011;4809;48.224;8.572;2023-11-21T02:15:18;0.43;;;0.40;;
9541;SDS011;4809;48.224;8.572;2023-11-21T02:17:48;0.35;;;0.35;;
9541;SDS011;4809;48.224;8.572;2023-11-21T02:20:18;1.77;;;0.50;;
9541;SDS011;4809;48.224;8.572;2023-11-21T02:25:24;0.47;;;0.30;;
9541;SDS011;4809;48.224;8.572;2023-11-21T02:27:52;0.28;;;0.28;;
9541;SDS011;4809;48.224;8.572;2023-11-21T02:30:20;1.45;;;0.35;;
9541;SDS011;4809;48.224;8.572;2023-11-21T02:32:50;1.73;;;0.30;;
9541;SDS011;4809;48.224;8.572;2023-11-21T02:35:18;0.35;;;0.30;;
9541;SDS011;4809;48.224;8.572;2023-11-21T02:37:47;0.30;;;0.30;;
9541;SDS011;4809;48.224;8.572;2023-11-21T02:40:13;0.40;;;0.40;;
9541;SDS011;4809;48.224;8.572;2023-11-21T02:42:42;1.35;;;0.28;;
9541;SDS011;4809;48.224;8.572;2023-11-21T02:45:08;0.38;;;0.38;;
9541;SDS011;4809;48.224;8.572;2023-11-21T02:47:37;0.25;;;0.25;;
9541;SDS011;4809;48.224;8.572;2023-11-21T02:50:03;0.38;;;0.38;;
9541;SDS011;4809;48.224;8.572;2023-11-21T02:52:31;0.30;;;0.30;;
9541;SDS011;4809;48.224;8.572;2023-11-21T02:54:58;0.65;;;0.30;;
9541;SDS011;4809;48.224;8.572;2023-11-21T02:57:23;0.30;;;0.30;;
9541;SDS011;4809;48.224;8.572;2023-11-21T02:59:49;0.95;;;0.30;;
9541;SDS011;4809;48.224;8.572;2023-11-21T03:02:15;0.40;;;0.40;;
9541;SDS011;4809;48.224;8.572;2023-11-21T03:04:42;0.40;;;0.30;;
9541;SDS011;4809;48.224;8.572;2023-11-21T03:07:08;0.90;;;0.38;;
9541;SDS011;4809;48.224;8.572;2023-11-21T03:09:34;0.60;;;0.32;;
9541;SDS011;4809;48.224;8.572;2023-11-21T03:12:00;0.43;;;0.40;;
9541;SDS011;4809;48.224;8.572;2023-11-21T03:14:26;0.30;;;0.30;;
9541;SDS011;4809;48.224;8.572;2023-11-21T03:16:52;0.88;;;0.32;;
9541;SDS011;4809;48.224;8.572;2023-11-21T03:22:14;0.95;;;0.32;;
9541;SDS011;4809;48.224;8.572;2023-11-21T03:24:39;0.80;;;0.40;;
9541;SDS011;4809;48.224;8.572;2023-11-21T03:27:05;0.57;;;0.57;;
9541;SDS011;4809;48.224;8.572;2023-11-21T03:29:30;0.75;;;0.50;;
9541;SDS011;4809;48.224;8.572;2023-11-21T03:31:56;0.50;;;0.50;;
9541;SDS011;4809;48.224;8.572;2023-11-21T03:34:25;0.57;;;0.40;;
9541;SDS011;4809;48.224;8.572;2023-11-21T03:36:52;0.82;;;0.30;;
9541;SDS011;4809;48.224;8.572;2023-11-21T03:39:21;0.20;;;0.20;;
9541;SDS011;4809;48.224;8.572;2023-11-21T03:41:47;0.55;;;0.43;;
9541;SDS011;4809;48.224;8.572;2023-11-21T03:44:14;0.30;;;0.30;;
9541;SDS011;4809;48.224;8.572;2023-11-21T03:46:40;0.38;;;0.38;;
9541;SDS011;4809;48.224;8.572;2023-11-21T03:49:06;0.95;;;0.50;;
9541;SDS011;4809;48.224;8.572;2023-11-21T03:51:32;0.35;;;0.35;;
9541;SDS011;4809;48.224;8.572;2023-11-21T03:53:59;0.95;;;0.30;;
9541;SDS011;4809;48.224;8.572;2023-11-21T03:56:24;0.43;;;0.43;;
9541;SDS011;4809;48.224;8.572;2023-11-21T03:58:50;1.60;;;0.40;;
9541;SDS011;4809;48.224;8.572;2023-11-21T04:01:20;0.30;;;0.30;;
9541;SDS011;4809;48.224;8.572;2023-11-21T04:03:47;0.80;;;0.80;;
9541;SDS011;4809;48.224;8.572;2023-11-21T04:06:13;0.75;;;0.60;;
9541;SDS011;4809;48.224;8.572;2023-11-21T04:08:38;0.63;;;0.63;;
9541;SDS011;4809;48.224;8.572;2023-11-21T04:11:04;2.30;;;0.63;;
9541;SDS011;4809;48.224;8.572;2023-11-21T04:13:30;0.77;;;0.63;;
9541;SDS011;4809;48.224;8.572;2023-11-21T04:15:55;0.50;;;0.50;;
9541;SDS011;4809;48.224;8.572;2023-11-21T04:18:21;0.60;;;0.60;;
9541;SDS011;4809;48.224;8.572;2023-11-21T04:20:49;1.02;;;0.55;;
9541;SDS011;4809;48.224;8.572;2023-11-21T04:23:15;0.35;;;0.35;;
9541;SDS011;4809;48.224;8.572;2023-11-21T04:25:40;0.93;;;0.40;;
9541;SDS011;4809;48.224;8.572;2023-11-21T04:28:06;0.32;;;0.25;;
9541;SDS011;4809;48.224;8.572;2023-11-21T04:30:32;0.32;;;0.32;;
9541;SDS011;4809;48.224;8.572;2023-11-21T04:32:58;0.65;;;0.40;;
9541;SDS011;4809;48.224;8.572;2023-11-21T04:35:24;0.20;;;0.20;;
9541;SDS011;4809;48.224;8.572;2023-11-21T04:37:49;1.05;;;0.38;;
9541;SDS011;4809;48.224;8.572;2023-11-21T04:40:16;0.40;;;0.40;;
9541;SDS011;4809;48.224;8.572;2023-11-21T04:42:41;0.50;;;0.40;;
9541;SDS011;4809;48.224;8.572;2023-11-21T04:45:07;0.40;;;0.40;;
9541;SDS011;4809;48.224;8.572;2023-11-21T04:47:34;0.38;;;0.32;;
9541;SDS011;4809;48.224;8.572;2023-11-21T04:50:02;0.28;;;0.28;;
9541;SDS011;4809;48.224;8.572;2023-11-21T04:52:28;0.30;;;0.30;;
9541;SDS011;4809;48.224;8.572;2023-11-21T04:54:54;0.38;;;0.35;;
9541;SDS011;4809;48.224;8.572;2023-11-21T04:57:22;0.40;;;0.35;;
9541;SDS011;4809;48.224;8.572;2023-11-21T04:59:51;0.57;;;0.57;;
9541;SDS011;4809;48.224;8.572;2023-11-21T05:02:16;0.40;;;0.40;;
9541;SDS011;4809;48.224;8.572;2023-11-21T05:04:44;0.50;;;0.50;;
9541;SDS011;4809;48.224;8.572;2023-11-21T05:07:10;0.40;;;0.40;;
9541;SDS011;4809;48.224;8.572;2023-11-21T05:09:37;0.47;;;0.47;;
9541;SDS011;4809;48.224;8.572;2023-11-21T05:12:06;1.70;;;0.95;;
9541;SDS011;4809;48.224;8.572;2023-11-21T05:14:32;0.52;;;0.50;;
9541;SDS011;4809;48.224;8.572;2023-11-21T05:16:58;0.50;;;0.50;;
9541;SDS011;4809;48.224;8.572;2023-11-21T05:19:24;0.70;;;0.70;;
9541;SDS011;4809;48.224;8.572;2023-11-21T05:21:49;0.93;;;0.60;;
9541;SDS011;4809;48.224;8.572;2023-11-21T05:24:15;0.98;;;0.90;;
9541;SDS011;4809;48.224;8.572;2023-11-21T05:26:41;0.95;;;0.73;;
9541;SDS011;4809;48.224;8.572;2023-11-21T05:29:07;2.30;;;0.90;;
9541;SDS011;4809;48.224;8.572;2023-11-21T05:31:32;0.73;;;0.73;;
9541;SDS011;4809;48.224;8.572;2023-11-21T05:33:58;0.80;;;0.80;;
9541;SDS011;4809;48.224;8.572;2023-11-21T05:36:24;0.90;;;0.90;;
9541;SDS011;4809;48.224;8.572;2023-11-21T05:38:49;3.22;;;1.20;;
9541;SDS011;4809;48.224;8.572;2023-11-21T05:41:16;1.02;;;1.02;;
9541;SDS011;4809;48.224;8.572;2023-11-21T05:43:42;1.10;;;1.00;;
9541;SDS011;4809;48.224;8.572;2023-11-21T05:46:08;1.73;;;1.30;;
9541;SDS011;4809;48.224;8.572;2023-11-21T05:48:34;0.98;;;0.98;;
9541;SDS011;4809;48.224;8.572;2023-11-21T05:51:03;1.55;;;1.25;;
9541;SDS011;4809;48.224;8.572;2023-11-21T05:53:29;2.60;;;1.30;;
9541;SDS011;4809;48.224;8.572;2023-11-21T05:55:55;1.50;;;1.38;;
9541;SDS011;4809;48.224;8.572;2023-11-21T05:58:22;1.30;;;1.20;;
9541;SDS011;4809;48.224;8.572;2023-11-21T06:00:48;1.60;;;1.40;;
9541;SDS011;4809;48.224;8.572;2023-11-21T06:03:13;1.20;;;1.05;;
9541;SDS011;4809;48.224;8.572;2023-11-21T06:05:39;2.55;;;0.90;;
9541;SDS011;4809;48.224;8.572;2023-11-21T06:08:05;1.38;;;1.27;;
9541;SDS011;4809;48.224;8.572;2023-11-21T06:10:31;1.42;;;1.30;;
9541;SDS011;4809;48.224;8.572;2023-11-21T06:12:57;1.55;;;1.45;;
9541;SDS011;4809;48.224;8.572;2023-11-21T06:15:23;1.70;;;1.00;;
9541;SDS011;4809;48.224;8.572;2023-11-21T06:17:49;2.20;;;1.38;;
9541;SDS011;4809;48.224;8.572;2023-11-21T06:20:17;1.63;;;1.25;;
9541;SDS011;4809;48.224;8.572;2023-11-21T06:22:47;1.92;;;1.35;;
9541;SDS011;4809;48.224;8.572;2023-11-21T06:25:14;2.65;;;1.17;;
9541;SDS011;4809;48.224;8.572;2023-11-21T06:27:44;2.20;;;2.00;;
9541;SDS011;4809;48.224;8.572;2023-11-21T06:30:11;2.75;;;2.20;;
9541;SDS011;4809;48.224;8.572;2023-11-21T06:32:38;2.00;;;1.90;;
9541;SDS011;4809;48.224;8.572;2023-11-21T06:35:04;2.67;;;1.73;;
9541;SDS011;4809;48.224;8.572;2023-11-21T06:37:31;2.00;;;1.90;;
9541;SDS011;4809;48.224;8.572;2023-11-21T06:39:58;1.85;;;1.75;;
9541;SDS011;4809;48.224;8.572;2023-11-21T06:42:24;1.80;;;1.70;;
9541;SDS011;4809;48.224;8.572;2023-11-21T06:44:50;1.38;;;1.27;;
9541;SDS011;4809;48.224;8.572;2023-11-21T06:47:22;1.30;;;1.20;;
9541;SDS011;4809;48.224;8.572;2023-11-21T06:49:50;1.20;;;1.10;;
9541;SDS011;4809;48.224;8.572;2023-11-21T06:52:16;1.60;;;1.30;;
9541;SDS011;4809;48.224;8.572;2023-11-21T06:54:45;1.80;;;1.20;;
9541;SDS011;4809;48.224;8.572;2023-11-21T06:57:12;2.00;;;1.80;;
9541;SDS011;4809;48.224;8.572;2023-11-21T06:59:38;2.72;;;2.53;;
9541;SDS011;4809;48.224;8.572;2023-11-21T07:02:04;3.10;;;2.15;;
9541;SDS011;4809;48.224;8.572;2023-11-21T07:04:31;8.13;;;5.57;;
9541;SDS011;4809;48.224;8.572;2023-11-21T07:07:03;6.38;;;5.78;;
9541;SDS011;4809;48.224;8.572;2023-11-21T07:09:29;6.07;;;5.47;;
9541;SDS011;4809;48.224;8.572;2023-11-21T07:11:54;1.60;;;1.50;;
9541;SDS011;4809;48.224;8.572;2023-11-21T07:14:21;2.25;;;2.03;;
9541;SDS011;4809;48.224;8.572;2023-11-21T07:16:47;3.10;;;2.05;;
9541;SDS011;4809;48.224;8.572;2023-11-21T07:19:12;3.80;;;2.53;;
9541;SDS011;4809;48.224;8.572;2023-11-21T07:21:39;7.25;;;6.28;;
9541;SDS011;4809;48.224;8.572;2023-11-21T07:24:05;5.38;;;4.70;;
9541;SDS011;4809;48.224;8.572;2023-11-21T07:26:32;11.10;;;8.73;;
9541;SDS011;4809;48.224;8.572;2023-11-21T07:28:59;11.20;;;8.38;;
9541;SDS011;4809;48.224;8.572;2023-11-21T07:31:25;3.38;;;2.28;;
9541;SDS011;4809;48.224;8.572;2023-11-21T07:33:51;2.70;;;2.30;;
9541;SDS011;4809;48.224;8.572;2023-11-21T07:36:17;2.72;;;2.50;;
9541;SDS011;4809;48.224;8.572;2023-11-21T07:38:44;10.80;;;6.20;;
9541;SDS011;4809;48.224;8.572;2023-11-21T07:41:10;10.20;;;7.53;;
9541;SDS011;4809;48.224;8.572;2023-11-21T07:43:36;5.40;;;4.00;;
9541;SDS011;4809;48.224;8.572;2023-11-21T07:46:02;5.72;;;3.67;;
9541;SDS011;4809;48.224;8.572;2023-11-21T07:48:31;2.15;;;1.95;;
9541;SDS011;4809;48.224;8.572;2023-11-21T07:50:57;21.52;;;11.32;;
9541;SDS011;4809;48.224;8.572;2023-11-21T07:53:24;21.55;;;12.13;;
9541;SDS011;4809;48.224;8.572;2023-11-21T07:55:50;20.33;;;11.40;;
9541;SDS011;4809;48.224;8.572;2023-11-21T07:58:17;23.02;;;12.88;;
9541;SDS011;4809;48.224;8.572;2023-11-21T08:00:43;6.63;;;3.88;;
9541;SDS011;4809;48.224;8.572;2023-11-21T08:03:09;7.18;;;4.22;;
9541;SDS011;4809;48.224;8.572;2023-11-21T08:05:36;31.80;;;20.42;;
9541;SDS011;4809;48.224;8.572;2023-11-21T08:08:02;18.77;;;14.52;;
9541;SDS011;4809;48.224;8.572;2023-11-21T08:10:27;8.88;;;6.97;;
9541;SDS011;4809;48.224;8.572;2023-11-21T08:12:53;3.75;;;2.60;;
9541;SDS011;4809;48.224;8.572;2023-11-21T08:15:19;5.63;;;3.90;;
9541;SDS011;4809;48.224;8.572;2023-11-21T08:17:46;2.50;;;2.30;;
9541;SDS011;4809;48.224;8.572;2023-11-21T08:20:12;3.45;;;2.00;;
9541;SDS011;4809;48.224;8.572;2023-11-21T08:22:41;3.50;;;2.40;;
9541;SDS011;4809;48.224;8.572;2023-11-21T08:25:09;4.03;;;3.22;;
9541;SDS011;4809;48.224;8.572;2023-11-21T08:27:35;5.22;;;4.30;;
9541;SDS011;4809;48.224;8.572;2023-11-21T08:30:02;6.35;;;4.63;;
9541;SDS011;4809;48.224;8.572;2023-11-21T08:32:28;4.47;;;3.00;;
9541;SDS011;4809;48.224;8.572;2023-11-21T08:34:58;4.80;;;3.50;;
9541;SDS011;4809;48.224;8.572;2023-11-21T08:37:24;5.93;;;4.10;;
9541;SDS011;4809;48.224;8.572;2023-11-21T08:39:52;5.78;;;4.30;;
9541;SDS011;4809;48.224;8.572;2023-11-21T08:42:19;3.80;;;3.30;;
9541;SDS011;4809;48.224;8.572;2023-11-21T08:44:45;4.70;;;3.45;;
9541;SDS011;4809;48.224;8.572;2023-11-21T08:47:12;4.57;;;2.90;;
9541;SDS011;4809;48.224;8.572;2023-11-21T08:49:38;2.65;;;2.25;;
9541;SDS011;4809;48.224;8.572;2023-11-21T08:52:03;4.47;;;2.78;;
9541;SDS011;4809;48.224;8.572;2023-11-21T08:54:30;3.92;;;2.67;;
9541;SDS011;4809;48.224;8.572;2023-11-21T08:56:56;3.22;;;2.50;;
9541;SDS011;4809;48.224;8.572;2023-11-21T08:59:23;4.50;;;2.95;;
9541;SDS011;4809;48.224;8.572;2023-11-21T09:01:49;3.80;;;2.60;;
9541;SDS011;4809;48.224;8.572;2023-11-21T09:04:16;2.90;;;2.70;;
9541;SDS011;4809;48.224;8.572;2023-11-21T09:06:42;4.00;;;3.00;;
9541;SDS011;4809;48.224;8.572;2023-11-21T09:09:07;5.00;;;3.03;;
9541;SDS011;4809;48.224;8.572;2023-11-21T09:11:35;3.58;;;2.80;;
9541;SDS011;4809;48.224;8.572;2023-11-21T09:14:01;4.07;;;3.20;;
9541;SDS011;4809;48.224;8.572;2023-11-21T09:16:28;3.20;;;2.72;;
9541;SDS011;4809;48.224;8.572;2023-11-21T09:18:54;3.83;;;2.90;;
9541;SDS011;4809;48.224;8.572;2023-11-21T09:21:19;3.30;;;3.00;;
9541;SDS011;4809;48.224;8.572;2023-11-21T09:23:45;3.72;;;3.10;;
9541;SDS011;4809;48.224;8.572;2023-11-21T09:26:11;3.45;;;2.53;;
9541;SDS011;4809;48.224;8.572;2023-11-21T09:28:37;7.65;;;5.57;;
9541;SDS011;4809;48.224;8.572;2023-11-21T09:31:03;9.93;;;8.85;;
9541;SDS011;4809;48.224;8.572;2023-11-21T09:33:29;13.02;;;11.70;;
9541;SDS011;4809;48.224;8.572;2023-11-21T09:35:57;21.27;;;19.15;;
9541;SDS011;4809;48.224;8.572;2023-11-21T09:38:24;12.25;;;10.98;;
9541;SDS011;4809;48.224;8.572;2023-11-21T09:40:50;11.98;;;10.68;;
9541;SDS011;4809;48.224;8.572;2023-11-21T09:43:18;11.30;;;8.93;;
9541;SDS011;4809;48.224;8.572;2023-11-21T09:45:47;26.52;;;19.05;;
9541;SDS011;4809;48.224;8.572;2023-11-21T09:48:18;36.50;;;25.30;;
9541;SDS011;4809;48.224;8.572;2023-11-21T09:50:45;14.65;;;10.70;;
9541;SDS011;4809;48.224;8.572;2023-11-21T09:53:13;19.05;;;14.02;;
9541;SDS011;4809;48.224;8.572;2023-11-21T09:55:52;19.48;;;13.73;;
9541;SDS011;4809;48.224;8.572;2023-11-21T09:58:19;19.08;;;14.68;;
9541;SDS011;4809;48.224;8.572;2023-11-21T10:00:47;15.52;;;10.85;;
9541;SDS011;4809;48.224;8.572;2023-11-21T10:03:13;6.85;;;5.85;;
9541;SDS011;4809;48.224;8.572;2023-11-21T10:05:40;8.75;;;7.70;;
9541;SDS011;4809;48.224;8.572;2023-11-21T10:08:11;3.55;;;2.47;;
9541;SDS011;4809;48.224;8.572;2023-11-21T10:10:37;3.30;;;2.30;;
9541;SDS011;4809;48.224;8.572;2023-11-21T10:13:11;3.60;;;2.60;;
9541;SDS011;4809;48.224;8.572;2023-11-21T10:15:38;2.35;;;2.10;;
9541;SDS011;4809;48.224;8.572;2023-11-21T10:18:06;3.65;;;3.35;;
9541;SDS011;4809;48.224;8.572;2023-11-21T10:20:32;2.25;;;2.15;;
9541;SDS011;4809;48.224;8.572;2023-11-21T10:22:59;2.20;;;2.10;;
9541;SDS011;4809;48.224;8.572;2023-11-21T10:25:28;2.60;;;2.40;;
9541;SDS011;4809;48.224;8.572;2023-11-21T10:27:58;3.45;;;3.15;;
9541;SDS011;4809;48.224;8.572;2023-11-21T10:30:36;3.50;;;3.20;;
9541;SDS011;4809;48.224;8.572;2023-11-21T10:33:06;2.25;;;1.98;;
9541;SDS011;4809;48.224;8.572;2023-11-21T10:35:39;2.00;;;1.90;;
9541;SDS011;4809;48.224;8.572;2023-11-21T10:38:13;2.10;;;2.00;;
9541;SDS011;4809;48.224;8.572;2023-11-21T10:40:42;2.10;;;2.00;;
9541;SDS011;4809;48.224;8.572;2023-11-21T10:43:09;2.10;;;2.00;;
9541;SDS011;4809;48.224;8.572;2023-11-21T10:45:38;3.10;;;2.80;;
9541;SDS011;4809;48.224;8.572;2023-11-21T10:48:08;3.38;;;3.08;;
9541;SDS011;4809;48.224;8.572;2023-11-21T10:50:36;2.80;;;2.40;;
9541;SDS011;4809;48.224;8.572;2023-11-21T10:53:03;2.03;;;1.92;;
9541;SDS011;4809;48.224;8.572;2023-11-21T10:55:29;2.72;;;2.00;;
9541;SDS011;4809;48.224;8.572;2023-11-21T10:57:57;2.80;;;2.08;;
9541;SDS011;4809;48.224;8.572;2023-11-21T11:00:24;2.00;;;1.90;;
9541;SDS011;4809;48.224;8.572;2023-11-21T11:02:52;2.30;;;2.10;;
9541;SDS011;4809;48.224;8.572;2023-11-21T11:05:22;2.20;;;2.00;;
9541;SDS011;4809;48.224;8.572;2023-11-21T11:07:50;1.98;;;1.80;;
9541;SDS011;4809;48.224;8.572;2023-11-21T11:10:20;2.17;;;1.98;;
9541;SDS011;4809;48.224;8.572;2023-11-21T11:12:51;4.75;;;3.40;;
9541;SDS011;4809;48.224;8.572;2023-11-21T11:15:17;2.42;;;2.22;;
9541;SDS011;4809;48.224;8.572;2023-11-21T11:17:45;1.90;;;1.80;;
9541;SDS011;4809;48.224;8.572;2023-11-21T11:20:12;2.00;;;1.80;;
9541;SDS011;4809;48.224;8.572;2023-11-21T11:28:07;8.73;;;6.90;;
9541;SDS011;4809;48.224;8.572;2023-11-21T11:30:53;3.90;;;3.50;;
9541;SDS011;4809;48.224;8.572;2023-11-21T11:36:13;1.67;;;1.58;;
9541;SDS011;4809;48.224;8.572;2023-11-21T11:38:50;3.45;;;3.25;;
9541;SDS011;4809;48.224;8.572;2023-11-21T11:41:24;2.00;;;1.90;;
9541;SDS011;4809;48.224;8.572;2023-11-21T11:43:51;3.08;;;2.30;;
9541;SDS011;4809;48.224;8.572;2023-11-21T11:46:18;2.80;;;2.00;;
9541;SDS011;4809;48.224;8.572;2023-11-21T11:48:46;2.58;;;2.38;;
9541;SDS011;4809;48.224;8.572;2023-11-21T11:51:13;2.35;;;2.15;;
9541;SDS011;4809;48.224;8.572;2023-11-21T11:53:42;1.10;;;1.05;;
9541;SDS011;4809;48.224;8.572;2023-11-21T11:58:48;1.23;;;1.23;;
9541;SDS011;4809;48.224;8.572;2023-11-21T12:01:21;1.15;;;1.05;;
9541;SDS011;4809;48.224;8.572;2023-11-21T12:07:02;1.30;;;1.20;;
9541;SDS011;4809;48.224;8.572;2023-11-21T12:09:28;2.00;;;1.90;;
9541;SDS011;4809;48.224;8.572;2023-11-21T12:11:55;1.42;;;1.33;;
9541;SDS011;4809;48.224;8.572;2023-11-21T12:14:24;1.70;;;1.40;;
9541;SDS011;4809;48.224;8.572;2023-11-21T12:16:50;3.80;;;3.25;;
9541;SDS011;4809;48.224;8.572;2023-11-21T12:19:16;3.00;;;2.70;;
9541;SDS011;4809;48.224;8.572;2023-11-21T12:21:43;3.60;;;2.47;;
9541;SDS011;4809;48.224;8.572;2023-11-21T12:24:09;2.70;;;2.50;;
9541;SDS011;4809;48.224;8.572;2023-11-21T12:26:38;1.92;;;1.83;;
9541;SDS011;4809;48.224;8.572;2023-11-21T12:29:04;3.28;;;2.97;;
9541;SDS011;4809;48.224;8.572;2023-11-21T12:31:32;2.35;;;2.17;;
9541;SDS011;4809;48.224;8.572;2023-11-21T12:33:59;2.13;;;2.03;;
9541;SDS011;4809;48.224;8.572;2023-11-21T12:36:25;2.55;;;2.35;;
9541;SDS011;4809;48.224;8.572;2023-11-21T12:38:51;2.30;;;2.10;;
9541;SDS011;4809;48.224;8.572;2023-11-21T12:41:17;2.55;;;2.00;;
9541;SDS011;4809;48.224;8.572;2023-11-21T12:43:43;1.70;;;1.60;;
9541;SDS011;4809;48.224;8.572;2023-11-21T12:46:12;4.35;;;3.60;;
9541;SDS011;4809;48.224;8.572;2023-11-21T12:48:39;1.38;;;1.30;;
9541;SDS011;4809;48.224;8.572;2023-11-21T12:51:07;2.20;;;2.00;;
9541;SDS011;4809;48.224;8.572;2023-11-21T12:53:34;3.15;;;2.42;;
9541;SDS011;4809;48.224;8.572;2023-11-21T12:56:12;4.40;;;2.60;;
9541;SDS011;4809;48.224;8.572;2023-11-21T12:58:43;4.75;;;2.40;;
9541;SDS011;4809;48.224;8.572;2023-11-21T13:01:13;16.42;;;9.20;;
9541;SDS011;4809;48.224;8.572;2023-11-21T13:03:43;5.65;;;3.00;;
9541;SDS011;4809;48.224;8.572;2023-11-21T13:06:13;6.13;;;4.10;;
9541;SDS011;4809;48.224;8.572;2023-11-21T13:08:39;2.45;;;2.15;;
9541;SDS011;4809;48.224;8.572;2023-11-21T13:11:05;28.75;;;22.58;;
9541;SDS011;4809;48.224;8.572;2023-11-21T13:13:31;15.25;;;11.77;;
9541;SDS011;4809;48.224;8.572;2023-11-21T13:18:30;2.40;;;2.20;;
9541;SDS011;4809;48.224;8.572;2023-11-21T13:20:59;2.10;;;1.92;;
9541;SDS011;4809;48.224;8.572;2023-11-21T13:23:28;2.47;;;2.28;;
9541;SDS011;4809;48.224;8.572;2023-11-21T13:25:57;1.73;;;1.63;;
9541;SDS011;4809;48.224;8.572;2023-11-21T13:28:23;2.10;;;2.00;;
9541;SDS011;4809;48.224;8.572;2023-11-21T13:30:49;2.00;;;1.90;;
9541;SDS011;4809;48.224;8.572;2023-11-21T13:33:17;5.35;;;3.20;;
9541;SDS011;4809;48.224;8.572;2023-11-21T13:35:46;9.07;;;4.80;;
9541;SDS011;4809;48.224;8.572;2023-11-21T13:38:17;9.05;;;5.03;;
9541;SDS011;4809;48.224;8.572;2023-11-21T13:40:50;9.63;;;5.03;;
9541;SDS011;4809;48.224;8.572;2023-11-21T13:43:19;9.82;;;5.18;;
9541;SDS011;4809;48.224;8.572;2023-11-21T13:45:47;5.45;;;2.90;;
9541;SDS011;4809;48.224;8.572;2023-11-21T13:48:23;9.27;;;5.15;;
9541;SDS011;4809;48.224;8.572;2023-11-21T13:51:12;9.55;;;5.43;;
9541;SDS011;4809;48.224;8.572;2023-11-21T13:53:42;14.23;;;7.90;;
9541;SDS011;4809;48.224;8.572;2023-11-21T13:56:10;5.88;;;3.45;;
9541;SDS011;4809;48.224;8.572;2023-11-21T13:58:37;9.32;;;5.00;;
9541;SDS011;4809;48.224;8.572;2023-11-21T14:01:21;11.00;;;5.78;;
9541;SDS011;4809;48.224;8.572;2023-11-21T14:04:17;8.32;;;4.40;;
9541;SDS011;4809;48.224;8.572;2023-11-21T14:06:43;8.45;;;4.97;;
9541;SDS011;4809;48.224;8.572;2023-11-21T14:09:20;13.45;;;7.15;;
9541;SDS011;4809;48.224;8.572;2023-11-21T14:11:54;6.10;;;3.58;;
9541;SDS011;4809;48.224;8.572;2023-11-21T14:14:23;8.23;;;4.55;;
9541;SDS011;4809;48.224;8.572;2023-11-21T14:16:51;7.32;;;4.93;;
9541;SDS011;4809;48.224;8.572;2023-11-21T14:19:17;6.15;;;4.13;;
9541;SDS011;4809;48.224;8.572;2023-11-21T14:21:43;5.15;;;2.95;;
9541;SDS011;4809;48.224;8.572;2023-11-21T14:24:10;2.55;;;1.90;;
9541;SDS011;4809;48.224;8.572;2023-11-21T14:26:38;1.85;;;1.60;;
9541;SDS011;4809;48.224;8.572;2023-11-21T14:29:08;2.25;;;2.05;;
9541;SDS011;4809;48.224;8.572;2023-11-21T14:31:37;1.92;;;1.73;;
9541;SDS011;4809;48.224;8.572;2023-11-21T14:34:03;1.70;;;1.60;;
9541;SDS011;4809;48.224;8.572;2023-11-21T14:36:31;2.67;;;2.40;;
9541;SDS011;4809;48.224;8.572;2023-11-21T14:38:57;2.78;;;2.10;;
9541;SDS011;4809;48.224;8.572;2023-11-21T14:41:23;1.30;;;1.20;;
9541;SDS011;4809;48.224;8.572;2023-11-21T14:43:50;1.65;;;1.55;;
9541;SDS011;4809;48.224;8.572;2023-11-21T14:46:16;3.05;;;2.05;;
9541;SDS011;4809;48.224;8.572;2023-11-21T14:48:44;2.97;;;2.67;;
9541;SDS011;4809;48.224;8.572;2023-11-21T14:51:24;2.22;;;2.00;;
9541;SDS011;4809;48.224;8.572;2023-11-21T14:53:56;2.30;;;2.03;;
9541;SDS011;4809;48.224;8.572;2023-11-21T14:56:29;2.97;;;2.13;;
9541;SDS011;4809;48.224;8.572;2023-11-21T14:59:04;3.00;;;2.60;;
9541;SDS011;4809;48.224;8.572;2023-11-21T15:01:41;3.88;;;2.85;;
9541;SDS011;4809;48.224;8.572;2023-11-21T15:04:20;4.80;;;3.35;;
9541;SDS011;4809;48.224;8.572;2023-11-21T15:07:00;5.78;;;3.47;;
9541;SDS011;4809;48.224;8.572;2023-11-21T15:09:26;4.75;;;3.17;;
9541;SDS011;4809;48.224;8.572;2023-11-21T15:11:58;4.47;;;2.92;;
9541;SDS011;4809;48.224;8.572;2023-11-21T15:14:38;3.47;;;2.72;;
9541;SDS011;4809;48.224;8.572;2023-11-21T15:17:04;5.57;;;3.58;;
9541;SDS011;4809;48.224;8.572;2023-11-21T15:19:31;3.25;;;2.50;;
9541;SDS011;4809;48.224;8.572;2023-11-21T15:21:56;3.30;;;2.88;;
9541;SDS011;4809;48.224;8.572;2023-11-21T15:24:23;3.78;;;3.13;;
9541;SDS011;4809;48.224;8.572;2023-11-21T15:26:49;3.40;;;2.83;;
9541;SDS011;4809;48.224;8.572;2023-11-21T15:29:15;3.72;;;3.30;;
9541;SDS011;4809;48.224;8.572;2023-11-21T15:31:42;4.63;;;3.60;;
9541;SDS011;4809;48.224;8.572;2023-11-21T15:34:13;9.45;;;6.60;;
9541;SDS011;4809;48.224;8.572;2023-11-21T15:36:39;3.92;;;3.53;;